Time;durP1;ratioP1;P1;durP2;ratioP2;P2;SDS_P1;SDS_P2;PMS_P1;PMS_P2;Temp;Humidity;BMP_temperature;BMP_pressure;BME280_temperature;BME280_humidity;BME280_pressure;Samples;Min_cycle;Max_cycle;Signal;HPM_P1;HPM_P2
2021/06/10 00:01:45;;;;;;;1999.90;999.90;;;19.40;99.90;;;;;;4974045;28;20642;-67
2021/06/10 00:04:10;;;;;;;1999.90;999.90;;;19.40;99.90;;;;;;4973651;28;20217;-67
2021/06/10 00:06:36;;;;;;;1999.90;999.90;;;19.40;99.90;;;;;;4974017;28;20495;-67
2021/06/10 00:09:02;;;;;;;1999.90;999.90;;;19.50;99.90;;;;;;4973962;28;20181;-67
2021/06/10 00:11:28;;;;;;;1999.90;999.90;;;19.50;99.90;;;;;;4973945;28;20302;-67
2021/06/10 00:13:53;;;;;;;1999.90;999.90;;;19.50;99.90;;;;;;4973457;28;20462;-67
2021/06/10 00:16:19;;;;;;;1999.90;999.90;;;19.60;99.90;;;;;;4973789;28;20201;-68
2021/06/10 00:18:48;;;;;;;1999.90;999.90;;;19.60;99.90;;;;;;4973785;28;20179;-68
2021/06/10 00:21:14;;;;;;;1999.90;999.90;;;19.60;99.90;;;;;;4974001;28;20663;-67
2021/06/10 00:23:40;;;;;;;1999.90;999.90;;;19.60;99.90;;;;;;4973514;28;20539;-67
2021/06/10 00:26:06;;;;;;;1999.90;999.90;;;19.60;99.90;;;;;;4973496;28;20412;-67
2021/06/10 00:28:31;;;;;;;1999.90;999.90;;;19.50;99.90;;;;;;4973538;28;20179;-66
2021/06/10 00:30:59;;;;;;;1999.90;999.90;;;19.30;99.90;;;;;;4973550;28;20662;-67
2021/06/10 00:33:25;;;;;;;1999.90;999.90;;;19.10;99.90;;;;;;4973523;28;20618;-67
2021/06/10 00:35:51;;;;;;;1999.90;999.90;;;19.00;99.90;;;;;;4973202;28;20804;-66
2021/06/10 00:38:16;;;;;;;1999.90;999.90;;;19.00;99.90;;;;;;4973482;28;20424;-66
2021/06/10 00:40:42;;;;;;;1999.90;999.90;;;18.80;99.90;;;;;;4973435;28;20179;-66
2021/06/10 00:43:08;;;;;;;1999.90;999.90;;;18.60;99.90;;;;;;4973184;28;20621;-67
2021/06/10 00:45:33;;;;;;;1999.90;999.90;;;18.60;99.90;;;;;;4973036;28;20538;-67
2021/06/10 00:47:59;;;;;;;1999.90;999.90;;;18.50;99.90;;;;;;4973365;28;20661;-66
2021/06/10 00:50:32;;;;;;;1999.90;999.90;;;18.50;99.90;;;;;;4973499;28;20183;-66
2021/06/10 00:52:58;;;;;;;1999.90;999.90;;;18.50;99.90;;;;;;4973165;28;20211;-68
2021/06/10 00:55:24;;;;;;;1999.90;999.90;;;18.50;99.90;;;;;;4973135;28;20412;-68
2021/06/10 00:57:50;;;;;;;1999.90;999.90;;;18.60;99.90;;;;;;4973179;28;20544;-67
2021/06/10 01:00:16;;;;;;;1999.90;999.90;;;18.60;99.90;;;;;;4973181;28;20402;-66
2021/06/10 01:02:42;;;;;;;1999.90;999.90;;;18.60;99.90;;;;;;4973123;28;20195;-67
2021/06/10 01:05:09;;;;;;;1999.90;999.90;;;18.60;99.90;;;;;;4972817;28;20807;-66
2021/06/10 01:07:37;;;;;;;1999.90;999.90;;;18.50;99.90;;;;;;4974962;28;20178;-67
2021/06/10 01:10:09;;;;;;;1999.90;999.90;;;18.30;99.90;;;;;;4979576;28;20903;-66
2021/06/10 01:12:56;;;;;;;1999.90;999.90;;;18.20;99.90;;;;;;4979364;28;20425;-67
2021/06/10 01:15:25;;;;;;;1999.90;999.90;;;18.20;99.90;;;;;;4979249;28;20880;-67
2021/06/10 01:17:51;;;;;;;1999.90;999.90;;;18.10;99.90;;;;;;4979532;28;20482;-66
2021/06/10 01:20:21;;;;;;;1999.90;999.90;;;18.10;99.90;;;;;;4979461;28;20409;-68
2021/06/10 01:22:55;;;;;;;1999.90;999.90;;;18.10;99.90;;;;;;4979431;28;20281;-67
2021/06/10 01:26:01;;;;;;;1999.90;999.90;;;18.10;99.90;;;;;;4979217;28;20413;-67
2021/06/10 01:28:39;;;;;;;1999.90;999.90;;;18.30;99.90;;;;;;4979402;28;20413;-67
2021/06/10 01:31:09;;;;;;;1999.90;999.90;;;18.30;99.90;;;;;;4979482;28;20402;-68
2021/06/10 01:33:38;;;;;;;1999.90;999.90;;;18.20;99.90;;;;;;4979215;28;20418;-69
2021/06/10 01:36:08;;;;;;;1999.90;999.90;;;18.20;99.90;;;;;;4979196;28;20395;-70
2021/06/10 01:38:34;;;;;;;1999.90;999.90;;;18.10;99.90;;;;;;4979401;28;20408;-71
2021/06/10 01:41:01;;;;;;;1999.90;999.90;;;18.10;99.90;;;;;;4979512;28;20411;-69
2021/06/10 01:43:31;;;;;;;1999.90;999.90;;;18.00;99.90;;;;;;4979162;28;20979;-68
2021/06/10 01:45:58;;;;;;;1999.90;999.90;;;18.00;99.90;;;;;;4979006;28;20930;-68
2021/06/10 01:48:25;;;;;;;1999.90;999.90;;;17.90;99.90;;;;;;4979534;28;20848;-67
2021/06/10 01:50:55;;;;;;;1999.90;999.90;;;17.90;99.90;;;;;;4979229;28;20406;-67
2021/06/10 01:53:22;;;;;;;1999.90;999.90;;;17.90;99.90;;;;;;4979082;28;20444;-67
2021/06/10 01:55:50;;;;;;;1999.90;999.90;;;17.90;99.90;;;;;;4978860;28;20785;-67
2021/06/10 01:58:17;;;;;;;1999.90;999.90;;;18.00;99.90;;;;;;4979100;28;20415;-67
2021/06/10 02:00:45;;;;;;;1999.90;999.90;;;17.90;99.90;;;;;;4979045;28;20401;-67
2021/06/10 02:03:13;;;;;;;1999.90;999.90;;;17.80;99.90;;;;;;4979034;28;20477;-67
2021/06/10 02:05:40;;;;;;;1999.90;999.90;;;17.80;99.90;;;;;;4978829;28;20407;-67
2021/06/10 02:08:11;;;;;;;1999.90;999.90;;;17.60;99.90;;;;;;4979099;28;20406;-67
2021/06/10 02:10:38;;;;;;;1999.90;999.90;;;17.50;99.90;;;;;;4979043;28;20383;-67
2021/06/10 02:13:05;;;;;;;1999.90;999.90;;;17.40;99.90;;;;;;4978804;28;20433;-67
2021/06/10 02:15:32;;;;;;;1999.90;999.90;;;17.40;99.90;;;;;;4978736;28;20408;-69
2021/06/10 02:17:57;;;;;;;1999.90;999.90;;;17.40;99.90;;;;;;4978949;28;20559;-67
2021/06/10 02:20:23;;;;;;;1999.90;999.90;;;17.40;99.90;;;;;;4975386;28;20501;-67
2021/06/10 02:22:49;;;;;;;1999.90;999.90;;;17.30;99.90;;;;;;4975860;28;20216;-70
2021/06/10 02:25:15;;;;;;;1999.90;999.90;;;17.20;99.90;;;;;;4975568;28;20333;-70
2021/06/10 02:27:41;;;;;;;1999.90;999.90;;;17.10;99.90;;;;;;4975788;28;20427;-69
2021/06/10 02:30:10;;;;;;;1999.90;999.90;;;17.10;99.90;;;;;;4975720;28;20417;-70
2021/06/10 02:32:36;;;;;;;1999.90;999.90;;;16.80;99.90;;;;;;4975637;28;20428;-70
2021/06/10 02:35:05;;;;;;;1999.90;999.90;;;16.70;99.90;;;;;;4975479;28;20469;-69
2021/06/10 02:37:31;;;;;;;1999.90;999.90;;;16.60;99.90;;;;;;4975683;28;20806;-69
2021/06/10 02:39:57;;;;;;;1999.90;999.90;;;16.60;99.90;;;;;;4975523;28;20419;-69
2021/06/10 02:42:24;;;;;;;1999.90;999.90;;;16.50;99.90;;;;;;4975432;28;20451;-69
2021/06/10 02:44:52;;;;;;;1999.90;999.90;;;16.50;99.90;;;;;;4975112;28;20459;-69
2021/06/10 02:47:20;;;;;;;1999.90;999.90;;;16.50;99.90;;;;;;4975568;28;20788;-69
2021/06/10 02:49:48;;;;;;;1999.90;999.90;;;16.40;99.90;;;;;;4975472;28;20466;-69
2021/06/10 02:52:16;;;;;;;1999.90;999.90;;;16.40;99.90;;;;;;4975341;28;20897;-70
2021/06/10 02:54:44;;;;;;;1999.90;999.90;;;16.40;99.90;;;;;;4974981;28;20421;-69
2021/06/10 02:57:10;;;;;;;1999.90;999.90;;;16.20;99.90;;;;;;4975228;28;20409;-69
2021/06/10 02:59:39;;;;;;;1999.90;999.90;;;16.20;99.90;;;;;;4975310;28;20481;-69
2021/06/10 03:02:05;;;;;;;1999.90;999.90;;;16.20;99.90;;;;;;4975156;28;20407;-68
2021/06/10 03:04:32;;;;;;;1999.90;999.90;;;16.20;99.90;;;;;;4974818;28;20452;-68
2021/06/10 03:06:59;;;;;;;1999.90;999.90;;;16.20;99.90;;;;;;4975078;28;20412;-69
2021/06/10 03:09:26;;;;;;;1999.90;999.90;;;16.20;99.90;;;;;;4975046;28;20433;-69
2021/06/10 03:11:52;;;;;;;1999.90;999.90;;;16.10;99.90;;;;;;4974970;28;20440;-68
2021/06/10 03:14:20;;;;;;;1999.90;999.90;;;16.10;99.90;;;;;;4974693;28;20449;-67
2021/06/10 03:16:46;;;;;;;1999.90;999.90;;;15.90;99.90;;;;;;4974928;28;20417;-67
2021/06/10 03:19:15;;;;;;;1999.90;999.90;;;15.90;99.90;;;;;;4974866;28;20418;-67
2021/06/10 03:21:40;;;;;;;1999.90;999.90;;;15.90;99.90;;;;;;4974760;28;20979;-67
2021/06/10 03:24:06;;;;;;;1999.90;999.90;;;15.90;99.90;;;;;;4974336;28;20551;-66
2021/06/10 03:26:35;;;;;;;1999.90;999.90;;;16.00;99.90;;;;;;4974682;28;20206;-70
2021/06/10 03:29:02;;;;;;;1999.90;999.90;;;16.00;99.90;;;;;;4974826;28;20421;-69
2021/06/10 03:31:29;;;;;;;1999.90;999.90;;;16.10;99.90;;;;;;4974616;28;20574;-69
2021/06/10 03:33:56;;;;;;;1999.90;999.90;;;16.10;99.90;;;;;;4974271;28;20466;-70
2021/06/10 03:36:22;;;;;;;1999.90;999.90;;;16.10;99.90;;;;;;4974573;28;20417;-69
2021/06/10 03:38:49;;;;;;;1999.90;999.90;;;16.10;99.90;;;;;;4974502;28;20776;-69
2021/06/10 03:41:16;;;;;;;1999.90;999.90;;;16.00;99.90;;;;;;4974430;28;20170;-71
2021/06/10 03:43:43;;;;;;;1999.90;999.90;;;16.00;99.90;;;;;;4974186;28;20460;-69
2021/06/10 03:46:09;;;;;;;1999.90;999.90;;;16.00;99.90;;;;;;4974326;28;20428;-67
2021/06/10 03:48:38;;;;;;;1999.90;999.90;;;16.00;99.90;;;;;;4974340;28;20407;-67
2021/06/10 03:51:15;;;;;;;1999.90;999.90;;;15.90;99.90;;;;;;4974223;28;20410;-70
2021/06/10 03:53:47;;;;;;;1999.90;999.90;;;15.90;99.90;;;;;;4974512;28;20454;-69
2021/06/10 03:56:12;;;;;;;1999.90;999.90;;;15.90;99.90;;;;;;4974089;28;20419;-69
2021/06/10 03:58:38;;;;;;;1999.90;999.90;;;16.00;99.90;;;;;;4974252;28;20509;-71
2021/06/10 04:01:04;;;;;;;1999.90;999.90;;;15.90;99.90;;;;;;4974045;28;20233;-70
2021/06/10 04:03:30;;;;;;;1999.90;999.90;;;15.90;99.90;;;;;;4973828;28;20264;-69
2021/06/10 04:05:56;;;;;;;1999.90;999.90;;;15.90;99.90;;;;;;4973786;28;20419;-69
2021/06/10 04:08:22;;;;;;;1999.90;999.90;;;15.90;99.90;;;;;;4974171;28;20203;-68
2021/06/10 04:10:48;;;;;;;1999.90;999.90;;;15.80;99.90;;;;;;4973933;28;20407;-67
2021/06/10 04:13:14;;;;;;;1999.90;999.90;;;15.80;99.90;;;;;;4973848;28;20701;-67
2021/06/10 04:15:39;;;;;;;1999.90;999.90;;;15.80;99.90;;;;;;4973681;28;20615;-67
2021/06/10 04:18:05;;;;;;;1999.90;999.90;;;15.80;99.90;;;;;;4973727;28;20533;-70
2021/06/10 04:20:30;;;;;;;1999.90;999.90;;;15.80;99.90;;;;;;4973705;28;20175;-70
2021/06/10 04:22:56;;;;;;;1999.90;999.90;;;15.70;99.90;;;;;;4973755;28;20198;-69
2021/06/10 04:25:22;;;;;;;1999.90;999.90;;;15.80;99.90;;;;;;4973314;28;20241;-67
2021/06/10 04:27:47;;;;;;;1999.90;999.90;;;15.80;99.90;;;;;;4973693;28;20543;-67
2021/06/10 04:30:14;;;;;;;1999.90;999.90;;;15.80;99.90;;;;;;4973611;28;20180;-67
2021/06/10 04:32:41;;;;;;;1999.90;999.90;;;16.00;99.90;;;;;;4973478;28;20186;-66
2021/06/10 04:35:08;;;;;;;1999.90;999.90;;;16.00;99.90;;;;;;4973228;28;20418;-66
2021/06/10 04:37:34;;;;;;;1999.90;999.90;;;16.00;99.90;;;;;;4973469;28;20420;-67
2021/06/10 04:40:00;;;;;;;1999.90;999.90;;;16.10;99.90;;;;;;4973428;28;20775;-67
2021/06/10 04:42:25;;;;;;;1999.90;999.90;;;16.20;99.90;;;;;;4972865;28;20177;-67
2021/06/10 04:44:52;;;;;;;1999.90;999.90;;;16.30;99.90;;;;;;4973003;28;20250;-69
2021/06/10 04:47:17;;;;;;;1999.90;999.90;;;16.40;99.90;;;;;;4973254;28;20722;-69
2021/06/10 04:49:44;;;;;;;1999.90;999.90;;;16.40;99.90;;;;;;4973454;28;20417;-69
2021/06/10 04:52:10;;;;;;;1999.90;999.90;;;16.40;99.90;;;;;;4973280;28;20406;-70
2021/06/10 04:54:36;;;;;;;1999.90;999.90;;;16.60;99.90;;;;;;4972818;28;20938;-67
2021/06/10 04:57:03;;;;;;;1999.90;999.90;;;16.60;99.90;;;;;;4973223;28;20469;-67
2021/06/10 04:59:29;;;;;;;1999.90;999.90;;;16.70;99.90;;;;;;4973226;28;20200;-68
2021/06/10 05:01:56;;;;;;;1999.90;999.90;;;16.80;99.90;;;;;;4973084;28;20984;-68
2021/06/10 05:04:22;;;;;;;1999.90;999.90;;;16.80;99.90;;;;;;4972950;28;20471;-67
2021/06/10 05:06:49;;;;;;;1999.90;999.90;;;17.00;99.90;;;;;;4973140;28;20969;-69
2021/06/10 05:09:15;;;;;;;1999.90;999.90;;;17.20;99.90;;;;;;4973089;28;20779;-69
2021/06/10 05:11:40;;;;;;;1999.90;999.90;;;17.30;99.90;;;;;;4973102;28;20413;-70
2021/06/10 05:14:06;;;;;;;1999.90;999.90;;;17.30;99.90;;;;;;4972709;28;20223;-69
2021/06/10 05:16:31;;;;;;;1999.90;999.90;;;17.50;99.90;;;;;;4972960;28;20269;-69
2021/06/10 05:18:57;;;;;;;1999.90;999.90;;;17.60;99.90;;;;;;4973002;28;20840;-69
2021/06/10 05:21:23;;;;;;;1999.90;999.90;;;17.70;99.90;;;;;;4973082;28;20180;-69
2021/06/10 05:23:49;;;;;;;1999.90;999.90;;;17.80;99.90;;;;;;4972703;28;20565;-68
2021/06/10 05:26:14;;;;;;;1999.90;999.90;;;17.90;99.90;;;;;;4972888;28;20480;-67
2021/06/10 05:28:40;;;;;;;1999.90;999.90;;;18.00;99.90;;;;;;4972966;28;20205;-68
2021/06/10 05:31:07;;;;;;;1999.90;999.90;;;18.20;99.90;;;;;;4972930;28;20291;-67
2021/06/10 05:33:34;;;;;;;1999.90;999.90;;;18.20;99.90;;;;;;4972834;28;20192;-67
2021/06/10 05:36:00;;;;;;;1999.90;999.90;;;18.30;99.90;;;;;;4972693;28;20754;-68
2021/06/10 05:38:26;;;;;;;1999.90;999.90;;;18.40;99.90;;;;;;4972885;28;20406;-67
2021/06/10 05:40:51;;;;;;;1999.90;999.90;;;18.60;99.90;;;;;;4972835;28;20218;-70
2021/06/10 05:43:17;;;;;;;1999.90;999.90;;;18.60;99.90;;;;;;4972557;28;20253;-67
2021/06/10 05:45:43;;;;;;;1999.90;999.90;;;18.60;99.90;;;;;;4972504;28;20169;-66
2021/06/10 05:48:10;;;;;;;1999.90;999.90;;;18.70;99.90;;;;;;4972810;28;20581;-69
2021/06/10 05:50:36;;;;;;;1999.90;999.90;;;18.80;99.90;;;;;;4972756;28;20199;-68
2021/06/10 05:53:02;;;;;;;1999.90;999.90;;;18.90;99.90;;;;;;4972535;28;20900;-67
2021/06/10 05:55:28;;;;;;;1999.90;999.90;;;18.90;99.90;;;;;;4974614;28;20503;-67
2021/06/10 05:57:53;;;;;;;1999.90;999.90;;;18.90;99.90;;;;;;4976338;28;20174;-67
2021/06/10 06:00:20;;;;;;;1999.90;999.90;;;19.00;99.90;;;;;;4976224;28;20179;-67
2021/06/10 06:02:45;;;;;;;1999.90;999.90;;;19.20;99.90;;;;;;4976368;28;20652;-68
2021/06/10 06:05:11;;;;;;;1999.90;999.90;;;19.20;99.90;;;;;;4975822;28;20541;-67
2021/06/10 06:07:37;;;;;;;1999.90;999.90;;;19.30;99.90;;;;;;4976110;28;20167;-68
2021/06/10 06:10:06;;;;;;;1999.90;999.90;;;19.50;99.90;;;;;;4976269;28;20202;-67
2021/06/10 06:12:33;;;;;;;1999.90;999.90;;;19.60;99.90;;;;;;4976085;28;20198;-67
2021/06/10 06:14:58;;;;;;;1999.90;999.90;;;19.70;99.90;;;;;;4975786;28;20422;-66
2021/06/10 06:17:24;;;;;;;1999.90;999.90;;;19.80;99.90;;;;;;4975977;28;20922;-67
2021/06/10 06:19:50;;;;;;;1999.90;999.90;;;19.80;99.90;;;;;;4975992;28;20184;-68
2021/06/10 06:22:15;;;;;;;1999.90;999.90;;;19.90;99.90;;;;;;4975702;28;20343;-68
2021/06/10 06:24:41;;;;;;;1999.90;999.90;;;20.10;99.90;;;;;;4975608;28;20234;-67
2021/06/10 06:27:07;;;;;;;1999.90;999.90;;;20.10;99.90;;;;;;4975842;28;20166;-67
2021/06/10 06:29:34;;;;;;;1999.90;999.90;;;20.20;99.90;;;;;;4975856;28;20209;-67
2021/06/10 06:32:00;;;;;;;1999.90;999.90;;;20.20;99.90;;;;;;4975831;28;20499;-69
2021/06/10 06:34:26;;;;;;;1999.90;999.90;;;20.30;99.90;;;;;;4975402;28;20499;-70
2021/06/10 06:36:52;;;;;;;1999.90;999.90;;;20.40;99.90;;;;;;4975947;28;20447;-69
2021/06/10 06:39:17;;;;;;;1999.90;999.90;;;20.50;99.90;;;;;;4977335;28;20819;-69
2021/06/10 06:41:43;;;;;;;1999.90;999.90;;;20.60;99.90;;;;;;4975754;28;20691;-68
2021/06/10 06:44:09;;;;;;;1999.90;999.90;;;20.60;99.90;;;;;;4975144;28;20573;-68
2021/06/10 06:46:35;;;;;;;1999.90;999.90;;;20.70;99.90;;;;;;4976316;28;20217;-71
2021/06/10 06:49:01;;;;;;;1999.90;999.90;;;20.80;99.90;;;;;;4977963;28;20965;-70
2021/06/10 06:51:27;;;;;;;1999.90;999.90;;;20.90;99.90;;;;;;4977078;28;20433;-70
2021/06/10 06:53:54;;;;;;;1999.90;999.90;;;20.90;99.90;;;;;;4975968;28;20451;-69
2021/06/10 06:56:21;;;;;;;1999.90;999.90;;;21.00;99.90;;;;;;4975521;28;20647;-69
2021/06/10 06:58:47;;;;;;;1999.90;999.90;;;21.10;99.90;;;;;;4975468;28;20895;-70
2021/06/10 07:01:12;;;;;;;1999.90;999.90;;;21.10;99.90;;;;;;4975490;28;20472;-69
2021/06/10 07:03:38;;;;;;;1999.90;999.90;;;21.20;99.90;;;;;;4975366;28;20659;-69
2021/06/10 07:06:04;;;;;;;1999.90;999.90;;;21.40;99.90;;;;;;4974587;28;20179;-70
2021/06/10 07:08:31;;;;;;;1999.90;999.90;;;21.50;99.90;;;;;;4974751;28;20712;-70
2021/06/10 07:10:58;;;;;;;1999.90;999.90;;;21.60;99.90;;;;;;4975299;28;20168;-70
2021/06/10 07:13:25;;;;;;;1999.90;999.90;;;21.70;99.90;;;;;;4975308;28;20803;-69
2021/06/10 07:15:51;;;;;;;1999.90;999.90;;;21.80;99.90;;;;;;4975062;28;20746;-70
2021/06/10 07:18:17;;;;;;;1999.90;999.90;;;21.90;99.90;;;;;;4975112;28;20520;-69
2021/06/10 07:20:43;;;;;;;1999.90;999.90;;;21.90;99.90;;;;;;4975091;28;20798;-69
2021/06/10 07:23:09;;;;;;;1999.90;999.90;;;22.00;99.90;;;;;;4975061;28;20219;-69
2021/06/10 07:25:35;;;;;;;1999.90;999.90;;;22.00;99.90;;;;;;4974785;28;20398;-71
2021/06/10 07:28:00;;;;;;;1999.90;999.90;;;22.10;99.90;;;;;;4975005;28;20179;-69
2021/06/10 07:30:26;;;;;;;1999.90;999.90;;;22.20;99.90;;;;;;4975331;28;20394;-69
2021/06/10 07:32:52;;;;;;;1999.90;999.90;;;22.40;99.90;;;;;;4975481;28;20263;-67
2021/06/10 07:35:24;;;;;;;1999.90;999.90;;;22.40;99.90;;;;;;4974400;28;20186;-67
2021/06/10 07:37:53;;;;;;;1999.90;999.90;;;22.50;99.90;;;;;;4974685;28;20592;-67
2021/06/10 07:40:20;;;;;;;1999.90;999.90;;;22.60;99.90;;;;;;4974444;28;20439;-67
2021/06/10 07:42:46;;;;;;;1999.90;999.90;;;22.70;99.90;;;;;;4974505;28;20455;-67
2021/06/10 07:45:13;;;;;;;1999.90;999.90;;;22.80;99.90;;;;;;4974143;28;20958;-67
2021/06/10 07:47:39;;;;;;;1999.90;999.90;;;22.80;99.90;;;;;;4974420;28;20394;-67
2021/06/10 07:50:05;;;;;;;1999.90;999.90;;;22.90;99.90;;;;;;4974490;28;20387;-67
2021/06/10 07:52:31;;;;;;;1999.90;999.90;;;23.00;99.90;;;;;;4974112;28;20170;-67
2021/06/10 07:54:57;;;;;;;1999.90;999.90;;;23.10;99.90;;;;;;4974057;28;20445;-66
2021/06/10 07:57:22;;;;;;;1999.90;999.90;;;23.10;99.90;;;;;;4974332;28;20204;-67
2021/06/10 07:59:48;;;;;;;1999.90;999.90;;;23.20;99.90;;;;;;4974228;28;20174;-67
2021/06/10 08:02:14;;;;;;;1999.90;999.90;;;23.30;99.90;;;;;;4974036;28;20251;-67
2021/06/10 08:04:40;;;;;;;1999.90;999.90;;;23.30;99.90;;;;;;4973704;28;21026;-68
2021/06/10 08:07:05;;;;;;;1999.90;999.90;;;23.50;99.90;;;;;;4974077;28;20199;-67
2021/06/10 08:09:32;;;;;;;1999.90;999.90;;;23.50;99.90;;;;;;4974020;28;20268;-67
2021/06/10 08:11:59;;;;;;;1999.90;999.90;;;23.60;99.90;;;;;;4974242;28;20223;-68
2021/06/10 08:14:24;;;;;;;1999.90;999.90;;;23.60;99.90;;;;;;4973565;28;20476;-68
2021/06/10 08:16:50;;;;;;;1999.90;999.90;;;23.70;99.90;;;;;;4971563;28;20783;-66
2021/06/10 08:19:16;;;;;;;1999.90;999.90;;;23.90;99.90;;;;;;4967671;28;20483;-67
2021/06/10 08:21:41;;;;;;;1999.90;999.90;;;24.00;99.90;;;;;;4971183;28;20162;-66
2021/06/10 08:24:07;;;;;;;1999.90;999.90;;;24.00;99.90;;;;;;4971706;28;20592;-66
2021/06/10 08:26:33;;;;;;;1999.90;999.90;;;24.00;99.90;;;;;;4969994;28;20180;-66
2021/06/10 08:28:59;;;;;;;1999.90;999.90;;;24.10;99.90;;;;;;4971695;28;20181;-67
2021/06/10 08:31:25;;;;;;;1999.90;999.90;;;24.20;99.90;;;;;;4970401;28;20204;-67
2021/06/10 08:33:52;;;;;;;1999.90;999.90;;;24.20;99.90;;;;;;4970711;28;20213;-67
2021/06/10 08:36:19;;;;;;;1999.90;999.90;;;24.20;99.90;;;;;;4971362;28;20419;-66
2021/06/10 08:38:46;;;;;;;1999.90;999.90;;;24.30;99.90;;;;;;4971676;28;20425;-66
2021/06/10 08:41:12;;;;;;;1999.90;999.90;;;24.40;99.90;;;;;;4971289;28;20466;-66
2021/06/10 08:43:38;;;;;;;1999.90;999.90;;;24.50;99.90;;;;;;4971412;28;20431;-66
2021/06/10 08:46:09;;;;;;;1999.90;999.90;;;24.60;99.90;;;;;;4971463;28;20417;-66
2021/06/10 08:48:37;;;;;;;1999.90;999.90;;;24.70;99.90;;;;;;4970621;28;20182;-66
2021/06/10 08:51:05;;;;;;;1999.90;999.90;;;24.60;99.90;;;;;;4966315;28;20396;-67
2021/06/10 08:53:31;;;;;;;1999.90;999.90;;;24.80;99.90;;;;;;4971197;28;20428;-67
2021/06/10 08:55:57;;;;;;;1999.90;999.90;;;24.80;99.90;;;;;;4971015;28;20422;-66
2021/06/10 08:58:23;;;;;;;1999.90;999.90;;;24.80;99.90;;;;;;4971381;28;20424;-67
2021/06/10 09:00:50;;;;;;;1999.90;999.90;;;24.80;99.90;;;;;;4971441;28;20424;-66
2021/06/10 09:03:24;;;;;;;1999.90;999.90;;;24.90;99.90;;;;;;4971011;28;20429;-66
2021/06/10 09:06:22;;;;;;;1999.90;999.90;;;25.00;99.90;;;;;;4971031;28;20420;-67
2021/06/10 09:08:50;;;;;;;1999.90;999.90;;;25.00;99.90;;;;;;4922768;28;20757;-67
2021/06/10 09:11:22;;;;;;;1999.90;999.90;;;25.00;99.90;;;;;;4971083;28;20753;-67
2021/06/10 09:13:58;;;;;;;1999.90;999.90;;;25.10;99.90;;;;;;4971028;28;20960;-67
2021/06/10 09:16:24;;;;;;;1999.90;999.90;;;25.10;99.90;;;;;;4971015;28;20388;-66
2021/06/10 09:19:01;;;;;;;1999.90;999.90;;;25.20;99.90;;;;;;4970856;28;20432;-66
2021/06/10 09:21:37;;;;;;;1999.90;999.90;;;25.20;99.90;;;;;;4971363;28;20161;-66
2021/06/10 09:24:21;;;;;;;1999.90;999.90;;;25.20;99.90;;;;;;4970831;28;20523;-66
2021/06/10 09:27:01;;;;;;;1999.90;999.90;;;25.20;99.90;;;;;;4963282;28;21079;-66
2021/06/10 09:29:41;;;;;;;1999.90;999.90;;;25.10;99.90;;;;;;4973507;28;20858;-67
2021/06/10 09:32:13;;;;;;;1999.90;999.90;;;25.10;99.90;;;;;;4974962;28;20425;-67
2021/06/10 09:35:05;;;;;;;1999.90;999.90;;;25.10;99.90;;;;;;4974863;28;20390;-67
2021/06/10 09:37:42;;;;;;;1999.90;999.90;;;25.10;99.90;;;;;;4968298;28;20425;-67
2021/06/10 09:40:18;;;;;;;1999.90;999.90;;;25.40;99.90;;;;;;4974444;28;20399;-66
2021/06/10 09:42:45;;;;;;;1999.90;999.90;;;25.60;99.90;;;;;;4974957;28;20981;-66
2021/06/10 09:45:15;;;;;;;1999.90;999.90;;;25.70;99.90;;;;;;4974508;28;20453;-66
2021/06/10 09:47:46;;;;;;;1999.90;999.90;;;25.80;99.90;;;;;;4974217;28;20449;-67
2021/06/10 09:50:18;;;;;;;1999.90;999.90;;;25.70;99.90;;;;;;4974787;28;20431;-66
2021/06/10 09:52:49;;;;;;;1999.90;999.90;;;25.70;99.90;;;;;;4974703;28;20445;-66
2021/06/10 09:55:56;;;;;;;1999.90;999.90;;;25.70;99.90;;;;;;4974160;28;20417;-66
2021/06/10 09:58:26;;;;;;;1999.90;999.90;;;26.10;99.90;;;;;;4974887;28;20780;-67
2021/06/10 10:00:54;;;;;;;1999.90;999.90;;;26.30;99.90;;;;;;4967226;28;20800;-66
2021/06/10 10:03:22;;;;;;;1999.90;999.90;;;26.30;99.90;;;;;;4974022;28;20908;-67
2021/06/10 10:05:49;;;;;;;1999.90;999.90;;;26.50;99.90;;;;;;4974102;28;20416;-67
2021/06/10 10:08:15;;;;;;;1999.90;999.90;;;26.80;99.90;;;;;;4974247;28;20460;-66
2021/06/10 10:10:42;;;;;;;1999.90;999.90;;;26.60;99.90;;;;;;4974332;28;20407;-66
2021/06/10 10:13:12;;;;;;;1999.90;999.90;;;26.70;99.90;;;;;;4974416;28;20456;-66
2021/06/10 10:15:38;;;;;;;1999.90;999.90;;;26.50;99.90;;;;;;4973840;28;20398;-67
2021/06/10 10:18:05;;;;;;;1999.90;999.90;;;26.20;99.90;;;;;;4973972;28;20400;-66
2021/06/10 10:20:32;;;;;;;1999.90;999.90;;;25.70;99.90;;;;;;4974116;28;20416;-67
2021/06/10 10:22:58;;;;;;;1999.90;999.90;;;25.40;99.90;;;;;;4974004;28;20414;-67
2021/06/10 10:25:24;;;;;;;1999.90;999.90;;;25.20;99.90;;;;;;4973374;28;20453;-67
2021/06/10 10:27:50;;;;;;;1999.90;999.90;;;25.10;99.90;;;;;;4974083;28;20175;-66
2021/06/10 10:30:18;;;;;;;1999.90;999.90;;;25.30;99.90;;;;;;4973654;28;20400;-67
2021/06/10 10:32:44;;;;;;;1999.90;999.90;;;25.50;99.90;;;;;;4973298;28;20200;-67
2021/06/10 10:35:26;;;;;;;1999.90;999.90;;;25.70;99.90;;;;;;4973467;28;20388;-67
2021/06/10 10:37:54;;;;;;;1999.90;999.90;;;26.10;99.90;;;;;;4973955;28;20185;-66
2021/06/10 10:40:27;;;;;;;1999.90;999.90;;;26.30;99.90;;;;;;4972792;28;20414;-67
2021/06/10 10:42:55;;;;;;;1999.90;999.90;;;26.50;99.90;;;;;;4973873;28;20432;-66
2021/06/10 10:45:29;;;;;;;1999.90;999.90;;;26.50;99.90;;;;;;4973351;28;20449;-66
2021/06/10 10:48:06;;;;;;;1999.90;999.90;;;26.00;99.90;;;;;;4973379;28;20421;-67
2021/06/10 10:50:36;;;;;;;1999.90;999.90;;;25.40;99.90;;;;;;4973958;28;20401;-68
2021/06/10 10:53:03;;;;;;;1999.90;999.90;;;24.90;99.90;;;;;;4973599;28;20670;-66
2021/06/10 10:55:30;;;;;;;1999.90;999.90;;;24.80;99.90;;;;;;4972618;28;20758;-66
2021/06/10 10:57:59;;;;;;;1999.90;999.90;;;24.70;99.90;;;;;;4973483;28;20438;-66
2021/06/10 11:00:45;;;;;;;1999.90;999.90;;;25.10;99.90;;;;;;4973620;28;20825;-67
2021/06/10 11:03:25;;;;;;;1999.90;999.90;;;25.40;99.90;;;;;;4973401;28;20859;-67
2021/06/10 11:05:52;;;;;;;1999.90;999.90;;;25.50;99.90;;;;;;4973045;28;20418;-67
2021/06/10 11:08:17;;;;;;;1999.90;999.90;;;25.50;99.90;;;;;;4972782;28;20414;-68
2021/06/10 11:10:50;;;;;;;1999.90;999.90;;;25.50;99.90;;;;;;4972916;28;20767;-68
2021/06/10 11:13:17;;;;;;;1999.90;999.90;;;25.60;99.90;;;;;;4973150;28;20190;-68
2021/06/10 11:15:42;;;;;;;1999.90;999.90;;;25.90;99.90;;;;;;4972378;28;20421;-68
2021/06/10 11:18:08;;;;;;;1999.90;999.90;;;25.90;99.90;;;;;;4973070;28;20418;-68
2021/06/10 11:20:37;;;;;;;1999.90;999.90;;;25.70;99.90;;;;;;4973023;28;20636;-68
2021/06/10 11:23:25;;;;;;;1999.90;999.90;;;25.70;99.90;;;;;;4972280;28;20528;-68
2021/06/10 11:25:52;;;;;;;1999.90;999.90;;;25.80;99.90;;;;;;4972693;28;20410;-68
2021/06/10 11:28:23;;;;;;;1999.90;999.90;;;25.70;99.90;;;;;;4972853;28;20809;-68
2021/06/10 11:30:51;;;;;;;1999.90;999.90;;;26.00;99.90;;;;;;4972264;28;20402;-69
2021/06/10 11:33:17;;;;;;;1999.90;999.90;;;26.30;99.90;;;;;;4972968;28;20430;-67
2021/06/10 11:35:57;;;;;;;1999.90;999.90;;;26.20;99.90;;;;;;4972222;28;20729;-68
2021/06/10 11:38:27;;;;;;;1999.90;999.90;;;26.00;99.90;;;;;;4972752;28;20182;-69
2021/06/10 11:40:55;;;;;;;1999.90;999.90;;;25.80;99.90;;;;;;4973069;28;20441;-68
2021/06/10 11:43:23;;;;;;;1999.90;999.90;;;25.70;99.90;;;;;;4972771;28;20444;-69
2021/06/10 11:46:01;;;;;;;1999.90;999.90;;;26.20;99.90;;;;;;4971749;28;20418;-69
2021/06/10 11:48:33;;;;;;;1999.90;999.90;;;27.00;99.90;;;;;;4973018;28;20416;-69
2021/06/10 11:50:58;;;;;;;1999.90;999.90;;;27.20;99.90;;;;;;4971405;28;20472;-68
2021/06/10 11:53:28;;;;;;;1999.90;999.90;;;27.30;99.90;;;;;;4971977;28;20441;-69
2021/06/10 11:55:56;;;;;;;1999.90;999.90;;;27.40;99.90;;;;;;4972562;28;20206;-66
2021/06/10 11:58:28;;;;;;;1999.90;999.90;;;27.30;99.90;;;;;;4972669;28;20406;-68
2021/06/10 12:00:55;;;;;;;1999.90;999.90;;;26.90;99.90;;;;;;4972267;28;20902;-67
2021/06/10 12:03:21;;;;;;;1999.90;999.90;;;27.10;99.90;;;;;;4970898;28;20434;-68